sensor_id;sensor_type;location;lat;lon;timestamp;temperature;humidity
72602;DHT22;60644;55.858;37.390;2022-10-29T00:02:20;10.74;78.23
72602;DHT22;60644;55.858;37.390;2022-10-29T00:04:46;10.75;78.18
72602;DHT22;60644;55.858;37.390;2022-10-29T00:07:12;10.77;78.01
72602;DHT22;60644;55.858;37.390;2022-10-29T00:09:38;10.80;77.90
72602;DHT22;60644;55.858;37.390;2022-10-29T00:12:03;10.79;78.00
72602;DHT22;60644;55.858;37.390;2022-10-29T00:14:29;10.75;78.14
72602;DHT22;60644;55.858;37.390;2022-10-29T00:16:55;10.77;77.97
72602;DHT22;60644;55.858;37.390;2022-10-29T00:19:22;10.77;77.98
72602;DHT22;60644;55.858;37.390;2022-10-29T00:21:51;10.77;77.95
72602;DHT22;60644;55.858;37.390;2022-10-29T00:24:17;10.78;77.89
72602;DHT22;60644;55.858;37.390;2022-10-29T00:26:43;10.79;77.75
72602;DHT22;60644;55.858;37.390;2022-10-29T00:29:09;10.80;77.69
72602;DHT22;60644;55.858;37.390;2022-10-29T00:31:34;10.80;77.66
72602;DHT22;60644;55.858;37.390;2022-10-29T00:34:00;10.79;77.62
72602;DHT22;60644;55.858;37.390;2022-10-29T00:36:28;10.81;77.60
72602;DHT22;60644;55.858;37.390;2022-10-29T00:38:54;10.82;77.45
72602;DHT22;60644;55.858;37.390;2022-10-29T00:41:23;10.83;77.31
72602;DHT22;60644;55.858;37.390;2022-10-29T00:44:53;10.77;77.83
72602;DHT22;60644;55.858;37.390;2022-10-29T00:47:24;10.74;77.87
72602;DHT22;60644;55.858;37.390;2022-10-29T00:50:07;10.71;78.00
72602;DHT22;60644;55.858;37.390;2022-10-29T00:52:35;10.67;78.03
72602;DHT22;60644;55.858;37.390;2022-10-29T00:55:06;10.66;78.05
72602;DHT22;60644;55.858;37.390;2022-10-29T00:57:38;10.65;77.58
72602;DHT22;60644;55.858;37.390;2022-10-29T01:00:05;10.64;77.60
72602;DHT22;60644;55.858;37.390;2022-10-29T01:02:33;10.62;77.64
72602;DHT22;60644;55.858;37.390;2022-10-29T01:05:01;10.58;77.79
72602;DHT22;60644;55.858;37.390;2022-10-29T01:07:29;10.56;78.14
72602;DHT22;60644;55.858;37.390;2022-10-29T01:09:56;10.49;78.45
72602;DHT22;60644;55.858;37.390;2022-10-29T01:31:54;10.29;79.11
72602;DHT22;60644;55.858;37.390;2022-10-29T01:34:38;10.29;79.10
72602;DHT22;60644;55.858;37.390;2022-10-29T01:42:43;10.23;79.38
72602;DHT22;60644;55.858;37.390;2022-10-29T01:47:48;10.26;79.30
72602;DHT22;60644;55.858;37.390;2022-10-29T01:50:18;10.24;79.36
72602;DHT22;60644;55.858;37.390;2022-10-29T01:52:46;10.20;79.45
72602;DHT22;60644;55.858;37.390;2022-10-29T01:55:18;10.18;79.72
72602;DHT22;60644;55.858;37.390;2022-10-29T01:57:44;10.15;79.56
72602;DHT22;60644;55.858;37.390;2022-10-29T02:00:15;10.15;79.65
72602;DHT22;60644;55.858;37.390;2022-10-29T02:11:10;10.19;79.63
72602;DHT22;60644;55.858;37.390;2022-10-29T02:13:39;10.21;79.53
72602;DHT22;60644;55.858;37.390;2022-10-29T02:16:09;10.22;79.53
72602;DHT22;60644;55.858;37.390;2022-10-29T02:18:44;10.21;79.38
72602;DHT22;60644;55.858;37.390;2022-10-29T02:21:14;10.18;79.66
72602;DHT22;60644;55.858;37.390;2022-10-29T02:23:40;10.19;79.56
72602;DHT22;60644;55.858;37.390;2022-10-29T02:26:06;10.18;79.52
72602;DHT22;60644;55.858;37.390;2022-10-29T02:28:32;10.20;79.43
72602;DHT22;60644;55.858;37.390;2022-10-29T02:30:59;10.20;79.36
72602;DHT22;60644;55.858;37.390;2022-10-29T02:33:25;10.20;79.30
72602;DHT22;60644;55.858;37.390;2022-10-29T02:35:50;10.22;79.30
72602;DHT22;60644;55.858;37.390;2022-10-29T02:38:16;10.18;79.46
72602;DHT22;60644;55.858;37.390;2022-10-29T02:40:42;10.15;79.58
72602;DHT22;60644;55.858;37.390;2022-10-29T02:43:08;10.20;79.36
72602;DHT22;60644;55.858;37.390;2022-10-29T02:45:34;10.24;79.18
72602;DHT22;60644;55.858;37.390;2022-10-29T02:47:59;10.23;79.11
72602;DHT22;60644;55.858;37.390;2022-10-29T02:50:25;10.25;79.02
72602;DHT22;60644;55.858;37.390;2022-10-29T02:52:51;10.25;78.95
72602;DHT22;60644;55.858;37.390;2022-10-29T02:55:17;10.25;78.87
72602;DHT22;60644;55.858;37.390;2022-10-29T02:57:43;10.25;78.88
72602;DHT22;60644;55.858;37.390;2022-10-29T03:00:10;10.20;78.95
72602;DHT22;60644;55.858;37.390;2022-10-29T03:02:36;10.18;79.14
72602;DHT22;60644;55.858;37.390;2022-10-29T03:05:02;10.16;79.00
72602;DHT22;60644;55.858;37.390;2022-10-29T03:07:28;10.16;79.07
72602;DHT22;60644;55.858;37.390;2022-10-29T03:09:54;10.16;78.98
72602;DHT22;60644;55.858;37.390;2022-10-29T03:12:20;10.18;79.01
72602;DHT22;60644;55.858;37.390;2022-10-29T03:14:46;10.22;78.87
72602;DHT22;60644;55.858;37.390;2022-10-29T03:17:12;10.20;78.92
72602;DHT22;60644;55.858;37.390;2022-10-29T03:19:37;10.21;78.92
72602;DHT22;60644;55.858;37.390;2022-10-29T03:22:03;10.23;78.85
72602;DHT22;60644;55.858;37.390;2022-10-29T03:24:29;10.23;78.81
72602;DHT22;60644;55.858;37.390;2022-10-29T03:26:55;10.24;78.82
72602;DHT22;60644;55.858;37.390;2022-10-29T03:29:22;10.26;78.71
72602;DHT22;60644;55.858;37.390;2022-10-29T03:31:47;10.30;78.60
72602;DHT22;60644;55.858;37.390;2022-10-29T03:34:13;10.29;78.54
72602;DHT22;60644;55.858;37.390;2022-10-29T03:36:39;10.31;78.54
72602;DHT22;60644;55.858;37.390;2022-10-29T03:39:05;10.28;78.59
72602;DHT22;60644;55.858;37.390;2022-10-29T03:41:31;10.25;78.82
72602;DHT22;60644;55.858;37.390;2022-10-29T03:43:57;10.23;79.07
72602;DHT22;60644;55.858;37.390;2022-10-29T03:46:23;10.25;78.95
72602;DHT22;60644;55.858;37.390;2022-10-29T03:48:48;10.27;78.92
72602;DHT22;60644;55.858;37.390;2022-10-29T03:51:15;10.26;79.00
72602;DHT22;60644;55.858;37.390;2022-10-29T03:53:41;10.23;79.06
72602;DHT22;60644;55.858;37.390;2022-10-29T03:56:08;10.23;79.10
72602;DHT22;60644;55.858;37.390;2022-10-29T03:58:35;10.21;79.29
72602;DHT22;60644;55.858;37.390;2022-10-29T04:01:04;10.20;79.34
72602;DHT22;60644;55.858;37.390;2022-10-29T04:03:32;10.16;79.43
72602;DHT22;60644;55.858;37.390;2022-10-29T04:06:00;10.15;79.46
72602;DHT22;60644;55.858;37.390;2022-10-29T04:08:26;10.18;79.42
72602;DHT22;60644;55.858;37.390;2022-10-29T04:10:52;10.18;79.46
72602;DHT22;60644;55.858;37.390;2022-10-29T04:13:18;10.16;79.40
72602;DHT22;60644;55.858;37.390;2022-10-29T04:15:44;10.19;79.37
72602;DHT22;60644;55.858;37.390;2022-10-29T04:18:11;10.16;79.41
72602;DHT22;60644;55.858;37.390;2022-10-29T04:20:39;10.13;79.59
72602;DHT22;60644;55.858;37.390;2022-10-29T04:23:05;10.10;79.63
72602;DHT22;60644;55.858;37.390;2022-10-29T04:25:31;10.09;79.72
72602;DHT22;60644;55.858;37.390;2022-10-29T04:27:57;10.00;80.20
72602;DHT22;60644;55.858;37.390;2022-10-29T04:30:23;10.03;80.06
72602;DHT22;60644;55.858;37.390;2022-10-29T04:32:49;10.08;79.67
72602;DHT22;60644;55.858;37.390;2022-10-29T04:35:15;10.09;79.65
72602;DHT22;60644;55.858;37.390;2022-10-29T04:37:41;10.09;79.62
72602;DHT22;60644;55.858;37.390;2022-10-29T04:40:07;10.04;79.88
72602;DHT22;60644;55.858;37.390;2022-10-29T04:42:37;10.03;79.99
72602;DHT22;60644;55.858;37.390;2022-10-29T04:45:04;10.01;80.06
72602;DHT22;60644;55.858;37.390;2022-10-29T04:47:30;9.99;80.16
72602;DHT22;60644;55.858;37.390;2022-10-29T04:49:56;9.97;80.26
72602;DHT22;60644;55.858;37.390;2022-10-29T04:52:22;9.97;80.22
72602;DHT22;60644;55.858;37.390;2022-10-29T04:54:48;9.99;80.14
72602;DHT22;60644;55.858;37.390;2022-10-29T04:57:14;9.99;80.14
72602;DHT22;60644;55.858;37.390;2022-10-29T04:59:40;9.99;80.13
72602;DHT22;60644;55.858;37.390;2022-10-29T05:02:05;10.05;79.93
72602;DHT22;60644;55.858;37.390;2022-10-29T05:04:31;10.05;79.85
72602;DHT22;60644;55.858;37.390;2022-10-29T05:06:57;10.08;79.70
72602;DHT22;60644;55.858;37.390;2022-10-29T05:09:23;10.08;79.60
72602;DHT22;60644;55.858;37.390;2022-10-29T05:11:49;10.12;79.47
72602;DHT22;60644;55.858;37.390;2022-10-29T05:14:14;10.12;79.39
72602;DHT22;60644;55.858;37.390;2022-10-29T05:16:40;10.15;79.30
72602;DHT22;60644;55.858;37.390;2022-10-29T05:19:06;10.18;79.20
72602;DHT22;60644;55.858;37.390;2022-10-29T05:21:32;10.16;79.21
72602;DHT22;60644;55.858;37.390;2022-10-29T05:23:57;10.19;79.17
72602;DHT22;60644;55.858;37.390;2022-10-29T05:26:23;10.18;79.18
72602;DHT22;60644;55.858;37.390;2022-10-29T05:28:49;10.16;79.30
72602;DHT22;60644;55.858;37.390;2022-10-29T05:31:18;10.18;79.25
72602;DHT22;60644;55.858;37.390;2022-10-29T05:33:44;10.18;79.25
72602;DHT22;60644;55.858;37.390;2022-10-29T05:36:10;10.22;79.13
72602;DHT22;60644;55.858;37.390;2022-10-29T05:38:36;10.21;79.17
72602;DHT22;60644;55.858;37.390;2022-10-29T05:41:01;10.20;79.18
72602;DHT22;60644;55.858;37.390;2022-10-29T05:43:27;10.20;79.15
72602;DHT22;60644;55.858;37.390;2022-10-29T05:45:53;10.23;79.12
72602;DHT22;60644;55.858;37.390;2022-10-29T05:48:19;10.20;79.18
72602;DHT22;60644;55.858;37.390;2022-10-29T05:50:45;10.23;79.14
72602;DHT22;60644;55.858;37.390;2022-10-29T05:53:12;10.26;79.02
72602;DHT22;60644;55.858;37.390;2022-10-29T05:55:39;10.25;79.01
72602;DHT22;60644;55.858;37.390;2022-10-29T05:58:08;10.28;78.90
72602;DHT22;60644;55.858;37.390;2022-10-29T06:00:36;10.28;78.78
72602;DHT22;60644;55.858;37.390;2022-10-29T06:03:03;10.28;78.85
72602;DHT22;60644;55.858;37.390;2022-10-29T06:05:29;10.24;79.04
72602;DHT22;60644;55.858;37.390;2022-10-29T06:07:59;10.25;79.01
72602;DHT22;60644;55.858;37.390;2022-10-29T06:10:26;10.30;78.85
72602;DHT22;60644;55.858;37.390;2022-10-29T06:12:52;10.33;78.80
72602;DHT22;60644;55.858;37.390;2022-10-29T06:15:18;10.34;78.75
72602;DHT22;60644;55.858;37.390;2022-10-29T06:17:44;10.33;78.69
72602;DHT22;60644;55.858;37.390;2022-10-29T06:20:12;10.34;78.63
72602;DHT22;60644;55.858;37.390;2022-10-29T06:22:38;10.38;78.45
72602;DHT22;60644;55.858;37.390;2022-10-29T06:25:05;10.38;78.53
72602;DHT22;60644;55.858;37.390;2022-10-29T06:27:31;10.38;78.42
72602;DHT22;60644;55.858;37.390;2022-10-29T06:29:56;10.38;78.46
72602;DHT22;60644;55.858;37.390;2022-10-29T06:32:22;10.40;78.27
72602;DHT22;60644;55.858;37.390;2022-10-29T06:34:48;10.44;78.10
72602;DHT22;60644;55.858;37.390;2022-10-29T06:37:14;10.46;77.85
72602;DHT22;60644;55.858;37.390;2022-10-29T06:39:40;10.46;77.79
72602;DHT22;60644;55.858;37.390;2022-10-29T06:42:06;10.49;77.98
72602;DHT22;60644;55.858;37.390;2022-10-29T06:44:33;10.52;77.79
72602;DHT22;60644;55.858;37.390;2022-10-29T06:46:59;10.49;77.79
72602;DHT22;60644;55.858;37.390;2022-10-29T06:49:25;10.50;77.66
72602;DHT22;60644;55.858;37.390;2022-10-29T06:51:51;10.55;77.40
72602;DHT22;60644;55.858;37.390;2022-10-29T06:54:16;10.54;77.44
72602;DHT22;60644;55.858;37.390;2022-10-29T06:56:42;10.54;77.39
72602;DHT22;60644;55.858;37.390;2022-10-29T06:59:08;10.55;77.41
72602;DHT22;60644;55.858;37.390;2022-10-29T07:01:34;10.49;77.77
72602;DHT22;60644;55.858;37.390;2022-10-29T07:04:00;10.50;77.72
72602;DHT22;60644;55.858;37.390;2022-10-29T07:06:26;10.53;77.40
72602;DHT22;60644;55.858;37.390;2022-10-29T07:08:52;10.57;77.34
72602;DHT22;60644;55.858;37.390;2022-10-29T07:11:18;10.56;77.37
72602;DHT22;60644;55.858;37.390;2022-10-29T07:13:44;10.53;77.45
72602;DHT22;60644;55.858;37.390;2022-10-29T07:16:10;10.56;77.33
72602;DHT22;60644;55.858;37.390;2022-10-29T07:18:35;10.58;77.16
72602;DHT22;60644;55.858;37.390;2022-10-29T07:21:02;10.64;77.08
72602;DHT22;60644;55.858;37.390;2022-10-29T07:23:29;10.64;76.73
72602;DHT22;60644;55.858;37.390;2022-10-29T07:25:55;10.68;76.81
72602;DHT22;60644;55.858;37.390;2022-10-29T07:28:21;10.67;76.69
72602;DHT22;60644;55.858;37.390;2022-10-29T07:30:49;10.75;76.73
72602;DHT22;60644;55.858;37.390;2022-10-29T07:33:15;10.74;76.44
72602;DHT22;60644;55.858;37.390;2022-10-29T07:35:42;10.69;76.70
72602;DHT22;60644;55.858;37.390;2022-10-29T07:38:10;10.77;76.59
72602;DHT22;60644;55.858;37.390;2022-10-29T07:40:44;10.78;76.51
72602;DHT22;60644;55.858;37.390;2022-10-29T07:43:10;10.79;76.59
72602;DHT22;60644;55.858;37.390;2022-10-29T07:45:36;10.74;76.42
72602;DHT22;60644;55.858;37.390;2022-10-29T07:48:04;10.71;76.79
72602;DHT22;60644;55.858;37.390;2022-10-29T07:50:32;10.65;77.21
72602;DHT22;60644;55.858;37.390;2022-10-29T07:52:59;10.67;77.23
72602;DHT22;60644;55.858;37.390;2022-10-29T07:55:25;10.55;77.73
72602;DHT22;60644;55.858;37.390;2022-10-29T07:57:59;10.55;78.16
72602;DHT22;60644;55.858;37.390;2022-10-29T08:00:31;10.51;78.37
72602;DHT22;60644;55.858;37.390;2022-10-29T08:02:57;10.49;78.54
72602;DHT22;60644;55.858;37.390;2022-10-29T08:05:24;10.45;78.62
72602;DHT22;60644;55.858;37.390;2022-10-29T08:07:52;10.45;78.69
72602;DHT22;60644;55.858;37.390;2022-10-29T08:10:19;10.46;78.74
72602;DHT22;60644;55.858;37.390;2022-10-29T08:12:49;10.43;78.85
72602;DHT22;60644;55.858;37.390;2022-10-29T08:15:15;10.44;78.98
72602;DHT22;60644;55.858;37.390;2022-10-29T08:17:41;10.42;79.06
72602;DHT22;60644;55.858;37.390;2022-10-29T08:20:07;10.46;79.04
72602;DHT22;60644;55.858;37.390;2022-10-29T08:22:33;10.48;78.97
72602;DHT22;60644;55.858;37.390;2022-10-29T08:24:59;10.50;79.04
72602;DHT22;60644;55.858;37.390;2022-10-29T08:27:25;10.51;78.75
72602;DHT22;60644;55.858;37.390;2022-10-29T08:29:51;10.48;78.75
72602;DHT22;60644;55.858;37.390;2022-10-29T08:32:16;10.52;79.08
72602;DHT22;60644;55.858;37.390;2022-10-29T08:34:42;10.57;78.84
72602;DHT22;60644;55.858;37.390;2022-10-29T08:37:08;10.52;78.90
72602;DHT22;60644;55.858;37.390;2022-10-29T08:39:34;10.56;78.69
72602;DHT22;60644;55.858;37.390;2022-10-29T08:47:26;10.70;78.30
72602;DHT22;60644;55.858;37.390;2022-10-29T08:50:05;10.71;78.09
72602;DHT22;60644;55.858;37.390;2022-10-29T08:52:39;10.64;78.49
72602;DHT22;60644;55.858;37.390;2022-10-29T08:55:18;10.59;78.60
72602;DHT22;60644;55.858;37.390;2022-10-29T08:57:55;10.65;78.79
72602;DHT22;60644;55.858;37.390;2022-10-29T09:00:30;10.71;78.66
72602;DHT22;60644;55.858;37.390;2022-10-29T09:02:57;10.66;78.60
72602;DHT22;60644;55.858;37.390;2022-10-29T09:05:29;10.56;79.12
72602;DHT22;60644;55.858;37.390;2022-10-29T09:10:56;10.59;78.78
72602;DHT22;60644;55.858;37.390;2022-10-29T09:16:25;10.59;78.87
72602;DHT22;60644;55.858;37.390;2022-10-29T09:25:00;10.57;78.91
72602;DHT22;60644;55.858;37.390;2022-10-29T09:33:57;10.41;79.30
72602;DHT22;60644;55.858;37.390;2022-10-29T09:36:28;10.36;79.94
72602;DHT22;60644;55.858;37.390;2022-10-29T09:39:08;10.36;80.12
72602;DHT22;60644;55.858;37.390;2022-10-29T09:41:36;10.40;79.76
72602;DHT22;60644;55.858;37.390;2022-10-29T09:44:20;10.48;79.57
72602;DHT22;60644;55.858;37.390;2022-10-29T09:52:30;10.51;79.41
72602;DHT22;60644;55.858;37.390;2022-10-29T09:54:59;10.49;79.37
72602;DHT22;60644;55.858;37.390;2022-10-29T09:57:30;10.53;79.21
72602;DHT22;60644;55.858;37.390;2022-10-29T10:00:03;10.57;79.08
72602;DHT22;60644;55.858;37.390;2022-10-29T10:02:42;10.55;78.87
72602;DHT22;60644;55.858;37.390;2022-10-29T10:07:38;10.52;79.27
72602;DHT22;60644;55.858;37.390;2022-10-29T10:10:25;10.54;79.27
72602;DHT22;60644;55.858;37.390;2022-10-29T10:12:51;10.56;79.14
72602;DHT22;60644;55.858;37.390;2022-10-29T10:15:51;10.59;78.89
72602;DHT22;60644;55.858;37.390;2022-10-29T10:18:19;10.64;78.89
72602;DHT22;60644;55.858;37.390;2022-10-29T10:20:48;10.59;78.92
72602;DHT22;60644;55.858;37.390;2022-10-29T10:23:25;10.64;78.57
72602;DHT22;60644;55.858;37.390;2022-10-29T10:25:56;10.59;78.41
72602;DHT22;60644;55.858;37.390;2022-10-29T10:28:30;10.59;78.84
72602;DHT22;60644;55.858;37.390;2022-10-29T10:31:12;10.59;78.21
72602;DHT22;60644;55.858;37.390;2022-10-29T10:33:52;10.63;78.46
72602;DHT22;60644;55.858;37.390;2022-10-29T10:36:27;10.54;78.43
72602;DHT22;60644;55.858;37.390;2022-10-29T10:38:58;10.58;78.27
72602;DHT22;60644;55.858;37.390;2022-10-29T10:41:29;10.58;78.52
72602;DHT22;60644;55.858;37.390;2022-10-29T10:44:01;10.63;78.40
72602;DHT22;60644;55.858;37.390;2022-10-29T10:46:37;10.73;78.22
72602;DHT22;60644;55.858;37.390;2022-10-29T10:51:37;10.73;77.78
72602;DHT22;60644;55.858;37.390;2022-10-29T10:57:23;10.74;77.77
72602;DHT22;60644;55.858;37.390;2022-10-29T11:03:02;10.75;77.39
72602;DHT22;60644;55.858;37.390;2022-10-29T11:05:39;10.71;77.68
72602;DHT22;60644;55.858;37.390;2022-10-29T11:08:19;10.67;77.65
72602;DHT22;60644;55.858;37.390;2022-10-29T11:11:01;10.72;77.63
72602;DHT22;60644;55.858;37.390;2022-10-29T11:13:31;10.74;77.64
72602;DHT22;60644;55.858;37.390;2022-10-29T11:16:11;10.77;77.47
72602;DHT22;60644;55.858;37.390;2022-10-29T11:18:59;10.75;77.48
72602;DHT22;60644;55.858;37.390;2022-10-29T11:24:19;10.65;77.64
72602;DHT22;60644;55.858;37.390;2022-10-29T11:26:50;10.73;77.58
72602;DHT22;60644;55.858;37.390;2022-10-29T11:32:06;10.71;77.71
72602;DHT22;60644;55.858;37.390;2022-10-29T11:34:50;10.62;78.13
72602;DHT22;60644;55.858;37.390;2022-10-29T11:39:57;10.69;77.99
72602;DHT22;60644;55.858;37.390;2022-10-29T11:42:24;10.69;77.85
72602;DHT22;60644;55.858;37.390;2022-10-29T11:44:50;10.67;78.00
72602;DHT22;60644;55.858;37.390;2022-10-29T11:52:53;10.72;77.90
72602;DHT22;60644;55.858;37.390;2022-10-29T11:55:27;10.73;77.76
72602;DHT22;60644;55.858;37.390;2022-10-29T11:58:14;10.72;77.81
72602;DHT22;60644;55.858;37.390;2022-10-29T12:06:14;10.65;77.78
72602;DHT22;60644;55.858;37.390;2022-10-29T12:22:18;10.72;77.21
72602;DHT22;60644;55.858;37.390;2022-10-29T12:33:35;10.71;77.43
72602;DHT22;60644;55.858;37.390;2022-10-29T12:38:51;10.58;77.72
72602;DHT22;60644;55.858;37.390;2022-10-29T12:41:22;10.58;78.10
72602;DHT22;60644;55.858;37.390;2022-10-29T12:43:50;10.59;78.08
72602;DHT22;60644;55.858;37.390;2022-10-29T12:49:14;10.67;77.88
72602;DHT22;60644;55.858;37.390;2022-10-29T12:51:54;10.62;77.94
72602;DHT22;60644;55.858;37.390;2022-10-29T12:54:29;10.59;78.04
72602;DHT22;60644;55.858;37.390;2022-10-29T12:57:16;10.57;78.34
72602;DHT22;60644;55.858;37.390;2022-10-29T12:59:44;10.53;78.42
72602;DHT22;60644;55.858;37.390;2022-10-29T13:12:58;10.59;78.67
72602;DHT22;60644;55.858;37.390;2022-10-29T13:15:33;10.54;78.94
72602;DHT22;60644;55.858;37.390;2022-10-29T13:18:05;10.53;78.75
72602;DHT22;60644;55.858;37.390;2022-10-29T13:20:38;10.45;79.26
72602;DHT22;60644;55.858;37.390;2022-10-29T13:25:53;10.48;79.16
72602;DHT22;60644;55.858;37.390;2022-10-29T13:31:34;10.46;79.33
72602;DHT22;60644;55.858;37.390;2022-10-29T13:39:15;10.46;79.20
72602;DHT22;60644;55.858;37.390;2022-10-29T13:41:49;10.42;79.37
72602;DHT22;60644;55.858;37.390;2022-10-29T13:44:19;10.38;79.77
72602;DHT22;60644;55.858;37.390;2022-10-29T13:49:28;10.38;79.66
72602;DHT22;60644;55.858;37.390;2022-10-29T13:52:05;10.41;79.58
72602;DHT22;60644;55.858;37.390;2022-10-29T13:54:38;10.40;79.56
72602;DHT22;60644;55.858;37.390;2022-10-29T13:59:41;10.46;79.28
72602;DHT22;60644;55.858;37.390;2022-10-29T14:10:34;10.46;79.30
72602;DHT22;60644;55.858;37.390;2022-10-29T14:16:01;10.51;79.30
72602;DHT22;60644;55.858;37.390;2022-10-29T14:18:30;10.43;79.68
72602;DHT22;60644;55.858;37.390;2022-10-29T14:21:00;10.45;79.67
72602;DHT22;60644;55.858;37.390;2022-10-29T14:23:28;10.49;79.63
72602;DHT22;60644;55.858;37.390;2022-10-29T14:26:03;10.50;79.55
72602;DHT22;60644;55.858;37.390;2022-10-29T14:28:31;10.50;79.75
72602;DHT22;60644;55.858;37.390;2022-10-29T14:31:03;10.50;79.69
72602;DHT22;60644;55.858;37.390;2022-10-29T14:33:34;10.49;79.72
72602;DHT22;60644;55.858;37.390;2022-10-29T14:41:19;10.51;79.99
72602;DHT22;60644;55.858;37.390;2022-10-29T14:44:05;10.48;79.82
72602;DHT22;60644;55.858;37.390;2022-10-29T14:46:34;10.44;80.36
72602;DHT22;60644;55.858;37.390;2022-10-29T14:49:09;10.50;80.11
72602;DHT22;60644;55.858;37.390;2022-10-29T14:52:29;10.48;79.98
72602;DHT22;60644;55.858;37.390;2022-10-29T14:54:38;10.55;79.81
72602;DHT22;60644;55.858;37.390;2022-10-29T14:57:11;10.54;79.77
72602;DHT22;60644;55.858;37.390;2022-10-29T14:59:46;10.58;79.63
72602;DHT22;60644;55.858;37.390;2022-10-29T15:02:14;10.64;79.46
72602;DHT22;60644;55.858;37.390;2022-10-29T15:04:48;10.65;79.20
72602;DHT22;60644;55.858;37.390;2022-10-29T15:09:45;10.63;79.29
72602;DHT22;60644;55.858;37.390;2022-10-29T15:12:38;10.59;79.42
72602;DHT22;60644;55.858;37.390;2022-10-29T15:15:08;10.59;79.30
72602;DHT22;60644;55.858;37.390;2022-10-29T15:17:37;10.58;79.57
72602;DHT22;60644;55.858;37.390;2022-10-29T15:20:20;10.64;79.37
72602;DHT22;60644;55.858;37.390;2022-10-29T15:22:51;10.63;79.33
72602;DHT22;60644;55.858;37.390;2022-10-29T15:25:37;10.63;79.25
72602;DHT22;60644;55.858;37.390;2022-10-29T15:28:09;10.62;79.23
72602;DHT22;60644;55.858;37.390;2022-10-29T15:30:37;10.63;79.27
72602;DHT22;60644;55.858;37.390;2022-10-29T15:33:05;10.67;79.11
72602;DHT22;60644;55.858;37.390;2022-10-29T15:35:35;10.69;79.03
72602;DHT22;60644;55.858;37.390;2022-10-29T15:43:49;10.70;78.95
72602;DHT22;60644;55.858;37.390;2022-10-29T15:46:44;10.68;78.91
72602;DHT22;60644;55.858;37.390;2022-10-29T15:49:15;10.70;78.83
72602;DHT22;60644;55.858;37.390;2022-10-29T15:51:42;10.66;79.00
72602;DHT22;60644;55.858;37.390;2022-10-29T15:54:09;10.69;78.92
72602;DHT22;60644;55.858;37.390;2022-10-29T15:56:39;10.65;79.02
72602;DHT22;60644;55.858;37.390;2022-10-29T15:59:05;10.66;79.08
72602;DHT22;60644;55.858;37.390;2022-10-29T16:01:33;10.58;79.41
72602;DHT22;60644;55.858;37.390;2022-10-29T16:03:59;10.64;79.25
72602;DHT22;60644;55.858;37.390;2022-10-29T16:06:25;10.55;79.47
72602;DHT22;60644;55.858;37.390;2022-10-29T16:08:53;10.58;79.50
72602;DHT22;60644;55.858;37.390;2022-10-29T16:11:20;10.65;79.38
72602;DHT22;60644;55.858;37.390;2022-10-29T16:13:50;10.65;79.37
72602;DHT22;60644;55.858;37.390;2022-10-29T16:16:21;10.70;79.21
72602;DHT22;60644;55.858;37.390;2022-10-29T16:18:48;10.73;79.04
72602;DHT22;60644;55.858;37.390;2022-10-29T16:21:17;10.74;79.04
72602;DHT22;60644;55.858;37.390;2022-10-29T16:23:45;10.74;79.06
72602;DHT22;60644;55.858;37.390;2022-10-29T16:26:16;10.74;79.08
72602;DHT22;60644;55.858;37.390;2022-10-29T16:28:46;10.71;79.25
72602;DHT22;60644;55.858;37.390;2022-10-29T16:31:20;10.70;79.44
72602;DHT22;60644;55.858;37.390;2022-10-29T16:33:49;10.65;79.75
72602;DHT22;60644;55.858;37.390;2022-10-29T16:36:19;10.58;80.16
72602;DHT22;60644;55.858;37.390;2022-10-29T16:38:45;10.57;80.31
72602;DHT22;60644;55.858;37.390;2022-10-29T16:41:15;10.62;80.11
72602;DHT22;60644;55.858;37.390;2022-10-29T16:43:42;10.64;80.08
72602;DHT22;60644;55.858;37.390;2022-10-29T16:46:08;10.60;80.24
72602;DHT22;60644;55.858;37.390;2022-10-29T16:48:35;10.60;80.33
72602;DHT22;60644;55.858;37.390;2022-10-29T16:51:01;10.59;80.39
72602;DHT22;60644;55.858;37.390;2022-10-29T16:53:27;10.58;80.55
72602;DHT22;60644;55.858;37.390;2022-10-29T16:55:53;10.56;80.67
72602;DHT22;60644;55.858;37.390;2022-10-29T16:58:19;10.56;80.69
72602;DHT22;60644;55.858;37.390;2022-10-29T17:00:45;10.62;80.54
72602;DHT22;60644;55.858;37.390;2022-10-29T17:03:13;10.60;80.62
72602;DHT22;60644;55.858;37.390;2022-10-29T17:05:41;10.62;80.62
72602;DHT22;60644;55.858;37.390;2022-10-29T17:08:07;10.64;80.58
72602;DHT22;60644;55.858;37.390;2022-10-29T17:10:34;10.67;80.51
72602;DHT22;60644;55.858;37.390;2022-10-29T17:13:00;10.65;80.58
72602;DHT22;60644;55.858;37.390;2022-10-29T17:15:26;10.68;80.51
72602;DHT22;60644;55.858;37.390;2022-10-29T17:17:53;10.70;80.49
72602;DHT22;60644;55.858;37.390;2022-10-29T17:20:19;10.69;80.54
72602;DHT22;60644;55.858;37.390;2022-10-29T17:22:45;10.65;80.88
72602;DHT22;60644;55.858;37.390;2022-10-29T17:25:11;10.63;81.12
72602;DHT22;60644;55.858;37.390;2022-10-29T17:27:39;10.58;81.31
72602;DHT22;60644;55.858;37.390;2022-10-29T17:30:06;10.54;81.62
72602;DHT22;60644;55.858;37.390;2022-10-29T17:32:32;10.53;81.78
72602;DHT22;60644;55.858;37.390;2022-10-29T17:34:59;10.38;82.58
72602;DHT22;60644;55.858;37.390;2022-10-29T17:37:26;10.51;82.18
72602;DHT22;60644;55.858;37.390;2022-10-29T17:39:52;10.55;81.95
72602;DHT22;60644;55.858;37.390;2022-10-29T17:42:18;10.55;81.99
72602;DHT22;60644;55.858;37.390;2022-10-29T17:44:44;10.63;81.68
72602;DHT22;60644;55.858;37.390;2022-10-29T17:47:10;10.67;81.53
72602;DHT22;60644;55.858;37.390;2022-10-29T17:49:37;10.68;81.43
72602;DHT22;60644;55.858;37.390;2022-10-29T17:52:03;10.70;81.34
72602;DHT22;60644;55.858;37.390;2022-10-29T17:54:29;10.71;81.42
72602;DHT22;60644;55.858;37.390;2022-10-29T17:56:55;10.71;81.30
72602;DHT22;60644;55.858;37.390;2022-10-29T17:59:21;10.69;81.54
72602;DHT22;60644;55.858;37.390;2022-10-29T18:01:48;10.71;81.43
72602;DHT22;60644;55.858;37.390;2022-10-29T18:04:14;10.71;81.53
72602;DHT22;60644;55.858;37.390;2022-10-29T18:06:40;10.73;81.54
72602;DHT22;60644;55.858;37.390;2022-10-29T18:09:05;10.77;81.37
72602;DHT22;60644;55.858;37.390;2022-10-29T18:11:32;10.78;81.30
72602;DHT22;60644;55.858;37.390;2022-10-29T18:13:57;10.82;81.17
72602;DHT22;60644;55.858;37.390;2022-10-29T18:16:26;10.80;81.22
72602;DHT22;60644;55.858;37.390;2022-10-29T18:18:53;10.79;81.30
72602;DHT22;60644;55.858;37.390;2022-10-29T18:21:21;10.82;81.16
72602;DHT22;60644;55.858;37.390;2022-10-29T18:23:48;10.73;81.62
72602;DHT22;60644;55.858;37.390;2022-10-29T18:26:31;10.74;81.67